createdAt,value
2022-11-08T00:01:33.579Z,19.50
2022-11-08T00:04:07.936Z,21.50
2022-11-08T00:06:53.723Z,22.10
2022-11-08T00:09:39.245Z,18.30
2022-11-08T00:12:25.034Z,19.70
2022-11-08T00:14:52.595Z,19.30
2022-11-08T00:17:19.722Z,20.00
2022-11-08T00:19:47.333Z,22.20
2022-11-08T00:22:14.553Z,19.30
2022-11-08T00:24:41.888Z,21.70
2022-11-08T00:27:17.030Z,17.60
2022-11-08T00:29:43.861Z,13.70
2022-11-08T00:32:15.601Z,15.80
2022-11-08T00:34:45.236Z,15.00
2022-11-08T00:37:12.367Z,18.20
2022-11-08T00:39:39.225Z,22.00
2022-11-08T00:42:06.241Z,18.90
2022-11-08T00:44:33.303Z,18.50
2022-11-08T00:47:01.448Z,17.80
2022-11-08T00:49:28.299Z,21.30
2022-11-08T00:51:55.496Z,17.70
2022-11-08T00:54:22.412Z,18.60
2022-11-08T00:56:49.828Z,17.30
2022-11-08T00:59:18.077Z,18.70
2022-11-08T01:01:46.784Z,15.70
2022-11-08T01:04:15.070Z,17.60
2022-11-08T01:06:43.289Z,19.10
2022-11-08T01:09:10.254Z,17.40
2022-11-08T01:11:38.032Z,18.80
2022-11-08T01:14:05.141Z,17.50
2022-11-08T01:16:34.937Z,19.10
2022-11-08T01:19:02.127Z,18.00
2022-11-08T01:21:29.293Z,21.10
2022-11-08T01:23:56.153Z,15.30
2022-11-08T01:26:25.520Z,15.20
2022-11-08T01:28:53.391Z,13.00
2022-11-08T01:31:27.798Z,17.50
2022-11-08T01:33:54.645Z,17.00
2022-11-08T01:36:23.128Z,14.80
2022-11-08T01:38:50.561Z,19.80
2022-11-08T01:41:19.830Z,19.00
2022-11-08T01:43:59.620Z,18.70
2022-11-08T01:46:34.049Z,17.50
2022-11-08T01:49:10.667Z,18.80
2022-11-08T01:51:44.116Z,17.10
2022-11-08T01:54:12.874Z,18.40
2022-11-08T01:56:41.633Z,18.90
2022-11-08T01:59:09.214Z,17.20
2022-11-08T02:01:37.471Z,19.00
2022-11-08T02:04:04.424Z,18.50
2022-11-08T02:06:32.993Z,20.00
2022-11-08T02:09:01.049Z,16.70
2022-11-08T02:11:27.952Z,18.50
2022-11-08T02:13:55.677Z,17.10
2022-11-08T02:16:23.610Z,16.50
2022-11-08T02:18:50.545Z,19.50
2022-11-08T02:21:23.405Z,15.30
2022-11-08T02:23:58.667Z,14.70
2022-11-08T02:26:29.447Z,13.60
2022-11-08T02:28:56.249Z,15.60
2022-11-08T02:31:23.029Z,14.50
2022-11-08T02:33:50.040Z,15.50
2022-11-08T02:36:20.930Z,19.20
2022-11-08T02:38:52.722Z,17.40
2022-11-08T02:41:19.486Z,17.20
2022-11-08T02:43:46.201Z,15.50
2022-11-08T02:46:13.488Z,16.50
2022-11-08T02:48:40.496Z,14.30
2022-11-08T02:51:07.507Z,17.40
2022-11-08T02:53:35.237Z,16.90
2022-11-08T02:56:02.698Z,15.30
2022-11-08T02:58:30.684Z,14.60
2022-11-08T03:01:00.383Z,18.10
2022-11-08T03:03:27.231Z,16.30
2022-11-08T03:05:56.509Z,15.60
2022-11-08T03:08:23.346Z,19.80
2022-11-08T03:10:53.155Z,12.40
2022-11-08T03:13:19.912Z,13.40
2022-11-08T03:15:46.764Z,12.20
2022-11-08T03:18:13.654Z,15.90
2022-11-08T03:20:40.606Z,15.60
2022-11-08T03:23:08.133Z,14.60
2022-11-08T03:25:35.811Z,16.00
2022-11-08T03:28:04.986Z,17.50
2022-11-08T03:30:32.177Z,15.30
2022-11-08T03:32:59.214Z,17.80
2022-11-08T03:35:26.088Z,14.00
2022-11-08T03:37:53.981Z,16.30
2022-11-08T03:40:20.937Z,16.40
2022-11-08T03:42:48.454Z,16.40
2022-11-08T03:45:16.146Z,15.60
2022-11-08T03:47:44.607Z,15.70
2022-11-08T03:50:12.145Z,15.40
2022-11-08T03:52:43.568Z,13.60
2022-11-08T03:55:10.761Z,14.20
2022-11-08T03:57:39.708Z,16.30
2022-11-08T04:00:07.784Z,17.40
2022-11-08T04:02:38.731Z,15.40
2022-11-08T04:05:06.814Z,17.20
2022-11-08T04:07:37.422Z,17.10
2022-11-08T04:10:05.631Z,16.70
2022-11-08T04:12:53.148Z,16.70
2022-11-08T04:15:21.886Z,16.60
2022-11-08T04:18:09.215Z,18.00
2022-11-08T04:21:05.472Z,14.20
2022-11-08T04:23:37.055Z,12.10
2022-11-08T04:26:08.243Z,17.10
2022-11-08T04:28:36.417Z,15.60
2022-11-08T04:31:14.738Z,15.30
2022-11-08T04:33:41.686Z,14.90
2022-11-08T04:36:13.601Z,15.80
2022-11-08T04:38:40.623Z,16.60
2022-11-08T04:41:10.376Z,16.80
2022-11-08T04:43:37.790Z,14.90
2022-11-08T04:46:09.138Z,14.20
2022-11-08T04:48:38.460Z,18.20
2022-11-08T04:51:13.487Z,12.90
2022-11-08T04:53:40.922Z,11.70
2022-11-08T04:56:09.583Z,12.80
2022-11-08T04:58:37.809Z,13.50
2022-11-08T05:01:07.690Z,16.30
2022-11-08T05:03:35.968Z,13.50
2022-11-08T05:06:04.115Z,15.40
2022-11-08T05:08:31.192Z,15.30
2022-11-08T05:11:02.038Z,16.10
2022-11-08T05:13:29.100Z,15.80
2022-11-08T05:16:05.178Z,15.60
2022-11-08T05:18:32.654Z,14.30
2022-11-08T05:21:18.790Z,13.50
2022-11-08T05:23:47.131Z,11.00
2022-11-08T05:26:13.972Z,12.60
2022-11-08T05:28:41.862Z,19.40
2022-11-08T05:31:09.111Z,20.80
2022-11-08T05:33:38.531Z,14.70
2022-11-08T05:36:06.882Z,16.70
2022-11-08T05:38:34.528Z,17.20
2022-11-08T05:41:06.051Z,17.70
2022-11-08T05:43:33.137Z,15.30
2022-11-08T05:46:00.103Z,15.10
2022-11-08T05:48:27.178Z,16.20
2022-11-08T05:50:54.055Z,12.10
2022-11-08T05:53:22.575Z,10.50
2022-11-08T10:12:25.598Z,25.90
2022-11-08T10:14:56.522Z,17.30
2022-11-08T10:17:31.467Z,19.30
2022-11-08T10:20:10.360Z,19.30
2022-11-08T10:22:55.053Z,20.30
2022-11-08T10:25:42.611Z,25.50
2022-11-08T10:28:10.423Z,19.40
2022-11-08T10:30:40.320Z,24.40
2022-11-08T10:33:21.926Z,17.00
2022-11-08T10:36:02.638Z,14.90
2022-11-08T10:38:40.447Z,18.00
2022-11-08T10:41:17.824Z,22.50
2022-11-08T10:44:15.607Z,18.90
2022-11-08T10:46:45.053Z,25.50
2022-11-08T10:49:18.928Z,18.20
2022-11-08T10:51:47.261Z,20.20
2022-11-08T10:54:51.828Z,19.80
2022-11-08T10:57:28.210Z,21.60
2022-11-08T10:59:56.746Z,22.80
2022-11-08T11:02:26.657Z,17.70
2022-11-08T11:04:54.420Z,20.90
2022-11-08T11:07:29.779Z,21.20
2022-11-08T11:09:56.736Z,18.90
2022-11-08T11:12:23.509Z,15.60
2022-11-08T11:14:59.695Z,20.40
2022-11-08T11:17:35.508Z,17.60
2022-11-08T11:20:06.605Z,20.40
2022-11-08T11:22:33.799Z,23.20
2022-11-08T11:25:14.334Z,19.80
2022-11-08T11:27:43.205Z,23.40
2022-11-08T11:30:33.816Z,16.80
2022-11-08T11:33:24.457Z,15.00
2022-11-08T11:36:03.705Z,16.00
2022-11-08T11:39:04.565Z,19.80
2022-11-08T11:42:17.838Z,21.50
2022-11-08T11:45:14.765Z,17.90
2022-11-08T11:47:50.995Z,21.00
2022-11-08T11:50:38.082Z,16.80
2022-11-08T11:53:28.868Z,14.50
2022-11-08T11:56:18.486Z,15.80
2022-11-08T11:59:09.106Z,20.20
2022-11-08T12:01:57.509Z,18.20
2022-11-08T12:07:18.126Z,17.00
2022-11-08T12:10:03.872Z,18.30
2022-11-08T12:12:56.417Z,15.60
2022-11-08T12:15:39.636Z,15.70
2022-11-08T12:18:09.652Z,15.20
2022-11-08T12:20:59.534Z,15.20
2022-11-08T12:23:50.571Z,17.70
2022-11-08T12:26:55.281Z,17.00
2022-11-08T12:29:30.113Z,18.10
2022-11-08T12:32:04.815Z,17.60
2022-11-08T12:34:49.621Z,15.50
2022-11-08T12:37:19.913Z,12.50
2022-11-08T12:39:50.416Z,14.10
2022-11-08T12:42:55.267Z,18.60
2022-11-08T12:45:45.974Z,20.10
2022-11-08T12:48:35.036Z,17.10
2022-11-08T12:51:07.443Z,17.30
2022-11-08T12:53:58.621Z,18.70
2022-11-08T12:56:37.822Z,14.50
2022-11-08T12:59:04.921Z,14.70
2022-11-08T13:01:32.127Z,15.60
2022-11-08T13:04:20.193Z,17.60
2022-11-08T13:06:56.946Z,19.40
2022-11-08T13:09:24.084Z,18.80
2022-11-08T13:12:27.137Z,21.50
2022-11-08T13:14:55.279Z,18.90
2022-11-08T13:17:26.928Z,15.30
2022-11-08T13:20:04.769Z,14.10
2022-11-08T13:22:32.957Z,14.70
2022-11-08T13:25:08.855Z,18.80
2022-11-08T13:27:45.733Z,20.30
2022-11-08T13:30:16.136Z,19.60
2022-11-08T13:32:43.353Z,17.10
2022-11-08T13:35:20.018Z,19.50
2022-11-08T13:37:52.728Z,15.00
2022-11-08T13:40:32.196Z,14.10
2022-11-08T13:43:22.483Z,13.60
2022-11-08T13:45:49.450Z,16.50
2022-11-08T13:48:28.864Z,17.10
2022-11-08T13:50:57.668Z,20.00
2022-11-08T18:06:05.510Z,70.30
2022-11-08T18:08:35.365Z,49.20
2022-11-08T18:11:02.394Z,62.30
2022-11-08T18:13:30.449Z,61.90
2022-11-08T18:16:19.323Z,49.40
2022-11-08T18:18:47.764Z,50.10
2022-11-08T18:21:15.386Z,57.50
2022-11-08T18:23:43.409Z,67.10
2022-11-08T18:26:10.662Z,101.00
2022-11-08T18:28:38.220Z,82.80
2022-11-08T18:31:09.773Z,74.50
2022-11-08T18:33:36.843Z,78.00
2022-11-08T18:36:08.967Z,76.90
2022-11-08T18:38:36.030Z,65.90
2022-11-08T18:41:03.503Z,47.80
2022-11-08T18:43:30.429Z,56.10
2022-11-08T18:45:57.356Z,55.20
2022-11-08T18:48:24.502Z,40.50
2022-11-08T18:50:51.570Z,45.40
2022-11-08T18:53:18.898Z,44.40
2022-11-08T18:55:46.277Z,39.40
2022-11-08T18:58:14.258Z,41.50
2022-11-08T19:00:43.237Z,36.30
2022-11-08T19:03:10.183Z,36.60
2022-11-08T19:05:38.218Z,39.40
2022-11-08T19:08:05.839Z,35.90
2022-11-08T19:10:33.262Z,30.50
2022-11-08T19:13:01.031Z,30.40
2022-11-08T19:15:31.722Z,29.60
2022-11-08T19:17:59.219Z,35.30
2022-11-08T19:20:26.224Z,27.30
2022-11-08T19:22:55.558Z,30.30
2022-11-08T19:25:23.133Z,33.60
2022-11-08T19:27:51.093Z,41.60
2022-11-08T19:36:28.861Z,35.70
2022-11-08T19:38:56.937Z,36.70
2022-11-08T19:41:27.732Z,42.10
2022-11-08T19:43:58.162Z,38.10
2022-11-08T19:46:29.384Z,43.90
2022-11-08T19:48:58.657Z,34.40
2022-11-08T19:51:27.925Z,33.20
2022-11-08T19:57:02.654Z,33.50
2022-11-08T19:59:20.770Z,36.20
2022-11-08T20:01:48.370Z,47.00
2022-11-08T20:04:15.841Z,39.40
2022-11-08T20:06:46.310Z,37.00
2022-11-08T20:09:13.643Z,34.70
2022-11-08T20:11:41.092Z,45.40
2022-11-08T20:14:10.536Z,45.10
2022-11-08T20:16:42.051Z,49.80
2022-11-08T20:19:11.611Z,52.10
2022-11-08T20:21:42.305Z,102.60
2022-11-08T20:24:10.293Z,34.50
2022-11-08T20:26:38.831Z,45.30
2022-11-08T20:29:07.131Z,46.20
2022-11-08T20:31:34.992Z,42.40
2022-11-08T20:34:06.167Z,52.40
2022-11-08T20:36:35.295Z,56.10
2022-11-08T20:39:06.825Z,57.40
2022-11-08T20:41:38.946Z,63.60
2022-11-08T20:44:06.411Z,58.70
2022-11-08T20:46:34.299Z,64.90
2022-11-08T20:49:01.847Z,64.70
2022-11-08T20:51:30.499Z,58.80
2022-11-08T20:53:58.320Z,66.50
2022-11-08T20:56:25.973Z,69.90
2022-11-08T20:58:53.555Z,61.80
2022-11-08T21:01:22.180Z,51.40
2022-11-08T21:03:49.965Z,49.90
2022-11-08T21:06:19.876Z,57.60
2022-11-08T21:08:59.110Z,46.70
2022-11-08T21:11:26.929Z,51.20
2022-11-08T21:13:54.373Z,56.90
2022-11-08T21:16:59.276Z,64.90
2022-11-08T21:19:09.086Z,65.60
2022-11-08T21:21:37.412Z,69.00
2022-11-08T21:24:06.795Z,70.60
2022-11-08T21:26:36.916Z,63.40
2022-11-08T21:29:05.253Z,65.30
2022-11-08T21:31:33.616Z,66.70
2022-11-08T21:34:00.913Z,57.70
2022-11-08T21:36:29.377Z,41.30
2022-11-08T21:38:56.642Z,37.20
2022-11-08T21:41:23.943Z,39.70
2022-11-08T21:43:51.658Z,47.90
2022-11-08T21:46:23.353Z,40.60
2022-11-08T21:48:55.199Z,49.60
2022-11-08T21:51:22.411Z,49.30
2022-11-08T21:53:55.309Z,44.40
2022-11-08T21:56:24.338Z,39.30
2022-11-08T21:58:51.539Z,51.00
2022-11-08T22:01:18.940Z,47.00
2022-11-08T22:03:48.363Z,48.90
2022-11-08T22:06:15.360Z,49.10
2022-11-08T22:08:47.723Z,39.60
2022-11-08T22:11:15.179Z,43.80
2022-11-08T22:13:42.018Z,29.10
2022-11-08T22:16:08.864Z,24.30
2022-11-08T22:18:58.618Z,28.30
2022-11-08T22:21:39.465Z,29.10
2022-11-08T22:24:18.440Z,23.60
2022-11-08T22:26:46.867Z,25.70
2022-11-08T22:29:14.206Z,26.40
2022-11-08T22:31:42.632Z,21.50
2022-11-08T22:34:09.733Z,21.00
2022-11-08T22:36:42.864Z,24.60
2022-11-08T22:39:15.694Z,24.00
2022-11-08T22:41:44.068Z,21.30
2022-11-08T22:44:12.450Z,23.70
2022-11-08T22:46:41.281Z,21.80
2022-11-08T22:49:10.397Z,19.70
2022-11-08T22:51:38.463Z,14.80
2022-11-08T22:54:06.233Z,15.80
2022-11-08T22:56:33.336Z,15.60
2022-11-08T22:59:00.261Z,18.50
2022-11-08T23:01:27.680Z,18.70
2022-11-08T23:03:54.619Z,17.00
2022-11-08T23:06:21.890Z,17.30
2022-11-08T23:08:49.746Z,17.30
2022-11-08T23:11:35.438Z,14.60
2022-11-08T23:14:24.132Z,17.80
2022-11-08T23:16:51.328Z,15.20
2022-11-08T23:19:38.762Z,12.90
2022-11-08T23:22:28.893Z,12.60
2022-11-08T23:24:55.973Z,14.20
2022-11-08T23:27:46.187Z,9.90
2022-11-08T23:30:34.305Z,12.90
2022-11-08T23:33:01.778Z,10.10
2022-11-08T23:35:29.234Z,10.10
2022-11-08T23:37:56.489Z,10.20
2022-11-08T23:40:42.694Z,9.40
2022-11-08T23:43:43.716Z,8.80
2022-11-08T23:46:11.966Z,10.40
2022-11-08T23:48:39.640Z,11.40
2022-11-08T23:51:07.207Z,10.60
2022-11-08T23:53:36.985Z,11.40
